KPIM/PIM METAR and TAF weather

Enter ICAO airport designator
Station Type Date Time Source
KPIM METAR 2019/10/23 08:35 UTC NOAA

KPIM 230835Z AUTO 32004KT 10SM CLR 08/05 A3012 RMK AO2 T00810046


Station Type Date Time Source
KPIM Decoded METAR 2019/10/23 08:35 UTC NOAA

Station name not available
Oct 23, 2019 - 04:35 AM EDT / 2019.10.23 0835 UTC
Wind: from the NW (320 degrees) at 5 MPH (4 KT):0
Visibility: 10 mile(s):0
Sky conditions: clear
Temperature: 46.6 F (8.1 C)
Dew Point: 40.3 F (4.6 C)
Relative Humidity: 78%
Pressure (altimeter): 30.12 in. Hg (1019 hPa)
ob: KPIM 230835Z AUTO 32004KT 10SM CLR 08/05 A3012 RMK AO2 T00810046
cycle: 8

Station Type Date Time Source
KPIM TAF UTC NOAA

Error!

Example: see airport list